Flight Track Log - Related Links

Times and Time Zones

All times are in EDT time to prevent confusion due to time zone crossing. See the SKW4728 flight status page for this flight to view local times or setup timezone preferences in your user account.

Time Position Orientation Groundspeed Altitude Reporting Facility
EDT Latitude Longitude Course Direction KTS MPH feet Rate Location/Type
Tue 01:32:06 PM 40.8086 -112.0014 258° West 169 194 4,900  Level Salt Lake Center
Tue 01:32:26 PM 40.8219 -112.0075 341° North 164 189 5,400 1,756 Climbing Salt Lake Center
Tue 01:33:28 PM 40.8492 -112.0878 294° West 221 254 7,300 2,195 Climbing Salt Lake Center
Tue 01:34:29 PM 40.8775 -112.1719 294° West 245 282 9,900 2,634 Climbing Salt Lake Center
Tue 01:35:00 PM 40.8629 -112.4183 288° West  Level FlightAware Approximate
Tue 01:35:31 PM 40.8833 -112.2686 275° West 266 306 12,700  Level Salt Lake Center
Tue 01:36:00 PM 40.8527 -112.5453 261° West  Level FlightAware Approximate
Tue 01:36:33 PM 40.8744 -112.3742 264° West 269 310 15,500  Level Salt Lake Center
Tue 01:37:00 PM 40.8460 -112.6738 258° West  Level FlightAware Approximate
Tue 01:37:34 PM 40.8678 -112.4728 265° West 270 311 17,600  Level Salt Lake Center
Tue 01:38:36 PM 40.8614 -112.5747 265° West 278 320 19,200 1,694 Climbing Salt Lake Center
Tue 01:39:38 PM 40.8517 -112.6919 264° West 297 342 21,100 1,756 Climbing Salt Lake Center
Tue 01:40:39 PM 40.8428 -112.8019 264° West 304 350 22,800 1,512 Climbing Salt Lake Center
Tue 01:41:41 PM 40.8403 -112.9203 268° West 302 348 24,200 1,355 Climbing Salt Lake Center
Tue 01:42:43 PM 40.8411 -113.0306 271° West 302 348 25,600 1,210 Climbing Salt Lake Center
Tue 01:43:45 PM 40.8417 -113.1411 270° West 301 346 26,700 1,122 Climbing Salt Lake Center
Tue 01:44:46 PM 40.8414 -113.2628 270° West 309 356 27,900 941 Climbing Salt Lake Center
Tue 01:46:00 PM 40.8333 -113.4221 270° West  Level FlightAware Approximate
Tue 01:46:50 PM 40.8408 -113.4828 270° West 313 360 29,600  Level Salt Lake Center
Tue 01:47:52 PM 40.8406 -113.6136 270° West 317 365 30,300 581 Climbing Salt Lake Center
Tue 01:48:54 PM 40.8414 -113.7306 271° West 327 376 30,800 634 Climbing Salt Lake Center
Tue 01:49:55 PM 40.8397 -113.8642 269° West 327 376 31,600 585 Climbing Salt Lake Center
Tue 01:50:57 PM 40.8411 -113.9792 271° West 327 376 32,000 194 Climbing Salt Lake Center
Tue 01:51:59 PM 40.8397 -114.1133 269° West 327 376 32,000  Level Salt Lake Center
Tue 01:53:01 PM 40.8394 -114.2269 270° West 325 374 32,000  Level Salt Lake Center
Tue 01:54:02 PM 40.8378 -114.3386 269° West 322 371 32,000  Level Salt Lake Center
Tue 01:55:04 PM 40.8369 -114.4697 270° West 320 368 32,000  Level Salt Lake Center
Tue 01:56:06 PM 40.8358 -114.5822 269° West 319 367 32,000  Level Salt Lake Center
Tue 01:57:08 PM 40.8342 -114.7142 269° West 321 369 32,000  Level Salt Lake Center
Tue 01:58:10 PM 40.8264 -114.8292 265° West 325 374 32,000  Level Salt Lake Center
Tue 01:59:11 PM 40.8094 -114.9647 261° West 332 382 32,000  Level Salt Lake Center
Tue 02:00:13 PM 40.7961 -115.0825 262° West 336 387 32,000  Level Salt Lake Center
Tue 02:01:15 PM 40.7792 -115.2156 260° West 333 383 32,000  Level Salt Lake Center
Tue 02:02:17 PM 40.7650 -115.3303 261° West 331 381 32,000  Level Salt Lake Center
Tue 02:03:19 PM 40.7517 -115.4450 261° West 330 380 32,000  Level Salt Lake Center
Tue 02:04:20 PM 40.7381 -115.5769 262° West 328 377 32,000  Level Salt Lake Center
Tue 02:05:22 PM 40.7253 -115.6900 262° West 327 376 32,000  Level Salt Lake Center
Tue 02:06:24 PM 40.7081 -115.8250 260° West 330 380 32,000  Level Salt Lake Center
Tue 02:07:26 PM 40.6942 -115.9386 261° West 330 380 32,000  Level Salt Lake Center
Tue 02:08:28 PM 40.6772 -116.0750 261° West 334 384 32,000  Level Salt Lake Center
Tue 02:09:30 PM 40.6625 -116.1939 261° West 339 390 32,000  Level Salt Lake Center
Tue 02:10:31 PM 40.6475 -116.3125 261° West 343 395 32,000  Level Salt Lake Center
Tue 02:11:33 PM 40.6303 -116.4486 261° West 339 390 32,000  Level Salt Lake Center
Tue 02:12:35 PM 40.6156 -116.5650 261° West 337 388 32,000  Level Salt Lake Center
Tue 02:13:37 PM 40.5986 -116.6986 261° West 334 384 32,000  Level Salt Lake Center
Tue 02:14:39 PM 40.5836 -116.8122 260° West 332 382 32,000  Level Salt Lake Center
Tue 02:15:41 PM 40.5772 -116.9414 266° West 322 371 32,000  Level Salt Lake Center
Tue 02:16:43 PM 40.6036 -117.0381 290° West 297 342 32,000  Level Salt Lake Center
Tue 02:17:44 PM 40.6372 -117.1506 292° West 296 341 32,000  Level Salt Lake Center
Tue 02:18:46 PM 40.6650 -117.2467 291° West 295 339 32,000  Level Salt Lake Center
Tue 02:19:48 PM 40.6992 -117.3619 291° West 300 345 32,000  Level Salt Lake Center
Tue 02:20:50 PM 40.7275 -117.4589 291° West 299 344 32,000  Level Salt Lake Center
Tue 02:21:52 PM 40.7606 -117.5739 291° West 299 344 32,000  Level Salt Lake Center
Tue 02:22:54 PM 40.7894 -117.6722 291° West 300 345 32,000  Level Salt Lake Center
Tue 02:23:56 PM 40.8228 -117.7889 291° West 303 349 32,000  Level Salt Lake Center
Tue 02:24:57 PM 40.8522 -117.8883 291° West 304 350 32,000  Level Salt Lake Center
Tue 02:25:59 PM 40.8803 -117.9894 290° West 305 351 32,000  Level Salt Lake Center
Tue 02:27:01 PM 40.9139 -118.1064 291° West 305 351 32,000  Level Salt Lake Center
Tue 02:28:03 PM 40.9431 -118.2075 291° West 306 352 32,000  Level Salt Lake Center
Tue 02:29:05 PM 40.9761 -118.3239 291° West 304 350 32,000  Level Salt Lake Center
Tue 02:30:06 PM 41.0031 -118.4244 290° West 303 349 32,000  Level Salt Lake Center
Tue 02:31:08 PM 41.0367 -118.5403 291° West 302 348 32,000  Level Salt Lake Center
Tue 02:32:10 PM 41.0636 -118.6394 290° West 300 345 32,000  Level Salt Lake Center
Tue 02:33:12 PM 41.0908 -118.7389 290° West 300 345 32,000  Level Salt Lake Center
Tue 02:34:14 PM 41.1233 -118.8550 290° West 300 345 32,000  Level Salt Lake Center
Tue 02:35:15 PM 41.1511 -118.9550 290° West 301 346 32,000  Level Salt Lake Center
Tue 02:36:17 PM 41.1831 -119.0750 290° West 306 352 32,000  Level Salt Lake Center
Tue 02:37:19 PM 41.2108 -119.1781 290° West 309 356 32,000  Level Salt Lake Center
Tue 02:38:21 PM 41.2453 -119.3000 291° West 314 361 32,000  Level Salt Lake Center
Tue 02:39:22 PM 41.2736 -119.4072 289° West 319 367 32,000  Level Salt Lake Center
Tue 02:40:24 PM 41.3033 -119.5139 290° West 322 371 32,000  Level Salt Lake Center
Tue 02:41:29 PM 41.3381 -119.6486 289° West 325 374 32,000  Level Seattle Center
Tue 02:42:30 PM 41.3689 -119.7622 290° West 328 377 32,000  Level Seattle Center
Tue 02:43:31 PM 41.4000 -119.8800 289° West 328 377 32,000  Level Seattle Center
Tue 02:44:32 PM 41.4294 -119.9917 289° West 328 377 32,000  Level Seattle Center
Tue 02:45:33 PM 41.4700 -120.1014 296° West 323 372 32,000  Level Seattle Center
Tue 02:46:34 PM 41.5114 -120.2022 299° West 321 369 32,000  Level Seattle Center
Tue 02:47:36 PM 41.5494 -120.3072 296° West 317 365 32,000  Level Seattle Center
Tue 02:48:37 PM 41.5892 -120.4117 297° West 316 364 32,000  Level Seattle Center
Tue 02:49:38 PM 41.6281 -120.5161 297° West 314 361 32,000  Level Seattle Center
Tue 02:50:39 PM 41.6719 -120.6422 295° West 313 360 32,000  Level Seattle Center
Tue 02:51:40 PM 41.7103 -120.7456 296° West 312 359 32,000  Level Seattle Center
Tue 02:52:41 PM 41.7500 -120.8486 297° West 311 358 32,000  Level Seattle Center
Tue 02:53:42 PM 41.7864 -120.9519 295° West 307 353 32,000  Level Seattle Center
Tue 02:54:43 PM 41.8250 -121.0544 297° West 309 356 32,000  Level Seattle Center
Tue 02:55:44 PM 41.8628 -121.1581 296° West 310 357 32,000 -836 Level Seattle Center
Tue 02:56:45 PM 41.9003 -121.2642 295° West 316 364 30,300 -1,820 Descending Seattle Center
Tue 02:57:46 PM 41.9397 -121.3725 296° West 322 371 28,300 -1,967 Descending Seattle Center
Tue 02:58:47 PM 41.9767 -121.4797 295° West 318 366 26,300 -1,967 Descending Seattle Center
Tue 02:59:48 PM 42.0158 -121.5858 296° West 319 367 24,300 -1,967 Descending Seattle Center
Tue 03:00:49 PM 42.0531 -121.6897 296° West 312 359 22,300 -2,164 Descending Seattle Center
Tue 03:01:50 PM 42.0961 -121.8097 296° West 301 346 19,900 -2,115 Descending Seattle Center
Tue 03:02:51 PM 42.1294 -121.9075 295° West 296 341 18,000 -1,869 Descending Seattle Center
Tue 03:03:52 PM 42.1628 -122.0017 296° West 288 331 16,100 -2,115 Descending Seattle Center
Tue 03:04:53 PM 42.1964 -122.0958 296° West 286 329 13,700 -2,016 Descending Seattle Center
Tue 03:05:54 PM 42.2292 -122.1886 296° West 280 322 12,000 -836 Descending Seattle Center
Tue 03:06:55 PM 42.2581 -122.2706 295° West 243 280 12,000 -344 Level Seattle Center
Tue 03:07:56 PM 42.2856 -122.3500 295° West 234 269 11,300 -1,033 Descending Seattle Center
Tue 03:08:57 PM 42.2928 -122.4389 276° West 251 289 9,900 -1,574 Descending Seattle Center
Tue 03:09:58 PM 42.2919 -122.5478 269° West 246 283 8,100 -1,328 Descending Seattle Center
Tue 03:10:59 PM 42.2903 -122.6381 269° West 243 280 7,200 -1,131 Descending Seattle Center
Tue 03:12:00 PM 42.2892 -122.7156 269° West 211 243 5,800 -1,426 Descending Seattle Center
Tue 03:13:01 PM 42.2881 -122.7900 269° West 197 227 4,300 -1,475 Descending Seattle Center

Login

Don't have an account? Register now (free) for customized features, flight alerts, and more!